sensor_id;sensor_type;location;lat;lon;timestamp;P1;durP1;ratioP1;P2;durP2;ratioP2
11086;SDS011;5597;47.588;9.642;2024-02-21T00:00:39;2.80;;;2.10;;
11086;SDS011;5597;47.588;9.642;2024-02-21T00:03:06;2.63;;;1.80;;
11086;SDS011;5597;47.588;9.642;2024-02-21T00:05:32;2.67;;;1.70;;
11086;SDS011;5597;47.588;9.642;2024-02-21T00:07:58;2.50;;;1.83;;
11086;SDS011;5597;47.588;9.642;2024-02-21T00:10:24;2.30;;;1.83;;
11086;SDS011;5597;47.588;9.642;2024-02-21T00:12:50;2.23;;;1.90;;
11086;SDS011;5597;47.588;9.642;2024-02-21T00:15:16;2.43;;;1.83;;
11086;SDS011;5597;47.588;9.642;2024-02-21T00:17:43;3.53;;;1.67;;
11086;SDS011;5597;47.588;9.642;2024-02-21T00:20:08;3.60;;;2.03;;
11086;SDS011;5597;47.588;9.642;2024-02-21T00:22:35;2.00;;;1.70;;
11086;SDS011;5597;47.588;9.642;2024-02-21T00:25:01;2.77;;;1.70;;
11086;SDS011;5597;47.588;9.642;2024-02-21T00:27:26;3.67;;;1.80;;
11086;SDS011;5597;47.588;9.642;2024-02-21T00:29:52;3.73;;;1.77;;
11086;SDS011;5597;47.588;9.642;2024-02-21T00:32:18;2.13;;;1.50;;
11086;SDS011;5597;47.588;9.642;2024-02-21T00:34:43;2.47;;;1.77;;
11086;SDS011;5597;47.588;9.642;2024-02-21T00:37:09;1.80;;;1.63;;
11086;SDS011;5597;47.588;9.642;2024-02-21T00:39:34;1.80;;;1.40;;
11086;SDS011;5597;47.588;9.642;2024-02-21T00:42:00;2.57;;;1.53;;
11086;SDS011;5597;47.588;9.642;2024-02-21T00:44:26;1.90;;;1.50;;
11086;SDS011;5597;47.588;9.642;2024-02-21T00:46:51;2.57;;;1.43;;
11086;SDS011;5597;47.588;9.642;2024-02-21T00:49:17;1.90;;;1.40;;
11086;SDS011;5597;47.588;9.642;2024-02-21T00:51:43;2.47;;;1.80;;
11086;SDS011;5597;47.588;9.642;2024-02-21T00:54:09;2.13;;;1.63;;
11086;SDS011;5597;47.588;9.642;2024-02-21T00:56:34;3.30;;;1.70;;
11086;SDS011;5597;47.588;9.642;2024-02-21T00:59:00;2.60;;;1.50;;
11086;SDS011;5597;47.588;9.642;2024-02-21T01:01:25;1.67;;;1.20;;
11086;SDS011;5597;47.588;9.642;2024-02-21T01:03:51;1.93;;;1.60;;
11086;SDS011;5597;47.588;9.642;2024-02-21T01:06:20;1.93;;;1.53;;
11086;SDS011;5597;47.588;9.642;2024-02-21T01:08:49;1.80;;;1.30;;
11086;SDS011;5597;47.588;9.642;2024-02-21T01:11:15;1.83;;;1.30;;
11086;SDS011;5597;47.588;9.642;2024-02-21T01:13:41;3.53;;;1.43;;
11086;SDS011;5597;47.588;9.642;2024-02-21T01:16:06;1.47;;;1.30;;
11086;SDS011;5597;47.588;9.642;2024-02-21T01:18:33;1.60;;;1.30;;
11086;SDS011;5597;47.588;9.642;2024-02-21T01:20:59;1.93;;;1.30;;
11086;SDS011;5597;47.588;9.642;2024-02-21T01:23:24;1.97;;;1.30;;
11086;SDS011;5597;47.588;9.642;2024-02-21T01:25:50;1.40;;;1.17;;
11086;SDS011;5597;47.588;9.642;2024-02-21T01:28:16;2.33;;;1.30;;
11086;SDS011;5597;47.588;9.642;2024-02-21T01:30:41;1.47;;;1.23;;
11086;SDS011;5597;47.588;9.642;2024-02-21T01:33:07;2.43;;;1.00;;
11086;SDS011;5597;47.588;9.642;2024-02-21T01:35:33;1.20;;;0.87;;
11086;SDS011;5597;47.588;9.642;2024-02-21T01:37:59;1.23;;;1.13;;
11086;SDS011;5597;47.588;9.642;2024-02-21T01:40:25;1.73;;;1.13;;
11086;SDS011;5597;47.588;9.642;2024-02-21T01:42:50;1.37;;;1.17;;
11086;SDS011;5597;47.588;9.642;2024-02-21T01:45:18;1.30;;;1.10;;
11086;SDS011;5597;47.588;9.642;2024-02-21T01:47:44;2.07;;;1.17;;
11086;SDS011;5597;47.588;9.642;2024-02-21T01:50:10;2.03;;;1.27;;
11086;SDS011;5597;47.588;9.642;2024-02-21T01:52:38;1.37;;;1.17;;
11086;SDS011;5597;47.588;9.642;2024-02-21T01:55:04;1.30;;;1.10;;
11086;SDS011;5597;47.588;9.642;2024-02-21T01:57:30;1.83;;;1.13;;
11086;SDS011;5597;47.588;9.642;2024-02-21T01:59:56;3.30;;;1.53;;
11086;SDS011;5597;47.588;9.642;2024-02-21T02:02:22;1.57;;;1.20;;
11086;SDS011;5597;47.588;9.642;2024-02-21T02:04:48;2.27;;;1.23;;
11086;SDS011;5597;47.588;9.642;2024-02-21T02:07:14;2.97;;;1.50;;
11086;SDS011;5597;47.588;9.642;2024-02-21T02:09:39;1.77;;;1.07;;
11086;SDS011;5597;47.588;9.642;2024-02-21T02:12:05;1.43;;;1.30;;
11086;SDS011;5597;47.588;9.642;2024-02-21T02:14:31;1.30;;;1.20;;
11086;SDS011;5597;47.588;9.642;2024-02-21T02:16:56;1.30;;;1.20;;
11086;SDS011;5597;47.588;9.642;2024-02-21T02:19:22;2.90;;;1.50;;
11086;SDS011;5597;47.588;9.642;2024-02-21T02:21:51;1.87;;;1.20;;
11086;SDS011;5597;47.588;9.642;2024-02-21T02:24:22;1.47;;;1.27;;
11086;SDS011;5597;47.588;9.642;2024-02-21T02:26:50;2.60;;;1.30;;
11086;SDS011;5597;47.588;9.642;2024-02-21T02:29:16;1.13;;;1.00;;
11086;SDS011;5597;47.588;9.642;2024-02-21T02:31:41;1.87;;;1.37;;
11086;SDS011;5597;47.588;9.642;2024-02-21T02:34:07;2.23;;;1.30;;
11086;SDS011;5597;47.588;9.642;2024-02-21T02:36:33;1.60;;;1.40;;
11086;SDS011;5597;47.588;9.642;2024-02-21T02:38:59;1.57;;;1.30;;
11086;SDS011;5597;47.588;9.642;2024-02-21T02:41:24;1.77;;;1.40;;
11086;SDS011;5597;47.588;9.642;2024-02-21T02:43:50;1.70;;;1.57;;
11086;SDS011;5597;47.588;9.642;2024-02-21T02:46:15;2.53;;;1.47;;
11086;SDS011;5597;47.588;9.642;2024-02-21T02:48:41;3.03;;;1.80;;
11086;SDS011;5597;47.588;9.642;2024-02-21T02:51:07;1.83;;;1.60;;
11086;SDS011;5597;47.588;9.642;2024-02-21T02:53:33;1.60;;;1.50;;
11086;SDS011;5597;47.588;9.642;2024-02-21T02:55:58;2.30;;;1.40;;
11086;SDS011;5597;47.588;9.642;2024-02-21T02:58:24;2.20;;;1.27;;
11086;SDS011;5597;47.588;9.642;2024-02-21T03:00:49;1.63;;;1.17;;
11086;SDS011;5597;47.588;9.642;2024-02-21T03:03:15;1.40;;;1.10;;
11086;SDS011;5597;47.588;9.642;2024-02-21T03:05:40;1.53;;;1.30;;
11086;SDS011;5597;47.588;9.642;2024-02-21T03:08:06;1.30;;;1.20;;
11086;SDS011;5597;47.588;9.642;2024-02-21T03:10:32;2.00;;;0.97;;
11086;SDS011;5597;47.588;9.642;2024-02-21T03:12:58;1.80;;;1.20;;
11086;SDS011;5597;47.588;9.642;2024-02-21T03:15:24;1.67;;;1.33;;
11086;SDS011;5597;47.588;9.642;2024-02-21T03:17:49;1.90;;;1.40;;
11086;SDS011;5597;47.588;9.642;2024-02-21T03:20:15;1.60;;;1.50;;
11086;SDS011;5597;47.588;9.642;2024-02-21T03:22:41;1.20;;;1.10;;
11086;SDS011;5597;47.588;9.642;2024-02-21T03:25:07;1.67;;;1.30;;
11086;SDS011;5597;47.588;9.642;2024-02-21T03:27:36;1.60;;;1.10;;
11086;SDS011;5597;47.588;9.642;2024-02-21T03:30:02;1.30;;;1.00;;
11086;SDS011;5597;47.588;9.642;2024-02-21T03:32:29;1.30;;;1.00;;
11086;SDS011;5597;47.588;9.642;2024-02-21T03:34:55;1.67;;;1.07;;
11086;SDS011;5597;47.588;9.642;2024-02-21T03:37:21;1.33;;;1.00;;
11086;SDS011;5597;47.588;9.642;2024-02-21T03:39:46;1.57;;;1.30;;
11086;SDS011;5597;47.588;9.642;2024-02-21T03:42:12;1.30;;;1.20;;
11086;SDS011;5597;47.588;9.642;2024-02-21T03:44:37;1.33;;;1.17;;
11086;SDS011;5597;47.588;9.642;2024-02-21T03:47:03;1.23;;;1.10;;
11086;SDS011;5597;47.588;9.642;2024-02-21T03:49:29;2.37;;;1.30;;
11086;SDS011;5597;47.588;9.642;2024-02-21T03:51:54;1.93;;;1.20;;
11086;SDS011;5597;47.588;9.642;2024-02-21T03:54:20;1.67;;;1.27;;
11086;SDS011;5597;47.588;9.642;2024-02-21T03:56:46;1.67;;;1.17;;
11086;SDS011;5597;47.588;9.642;2024-02-21T03:59:12;1.30;;;1.20;;
11086;SDS011;5597;47.588;9.642;2024-02-21T04:01:38;1.20;;;1.00;;
11086;SDS011;5597;47.588;9.642;2024-02-21T04:04:04;2.00;;;1.20;;
11086;SDS011;5597;47.588;9.642;2024-02-21T04:06:29;1.53;;;1.00;;
11086;SDS011;5597;47.588;9.642;2024-02-21T04:08:55;1.73;;;1.07;;
11086;SDS011;5597;47.588;9.642;2024-02-21T04:11:21;1.20;;;0.97;;
11086;SDS011;5597;47.588;9.642;2024-02-21T04:13:47;1.27;;;1.00;;
11086;SDS011;5597;47.588;9.642;2024-02-21T04:16:15;0.93;;;0.90;;
11086;SDS011;5597;47.588;9.642;2024-02-21T04:18:41;3.43;;;1.17;;
11086;SDS011;5597;47.588;9.642;2024-02-21T04:21:08;1.93;;;1.00;;
11086;SDS011;5597;47.588;9.642;2024-02-21T04:23:34;2.73;;;1.07;;
11086;SDS011;5597;47.588;9.642;2024-02-21T04:26:00;1.30;;;1.00;;
11086;SDS011;5597;47.588;9.642;2024-02-21T04:28:26;1.10;;;0.83;;
11086;SDS011;5597;47.588;9.642;2024-02-21T04:30:51;1.23;;;1.00;;
11086;SDS011;5597;47.588;9.642;2024-02-21T04:33:17;1.60;;;1.20;;
11086;SDS011;5597;47.588;9.642;2024-02-21T04:35:43;1.10;;;1.00;;
11086;SDS011;5597;47.588;9.642;2024-02-21T04:38:09;1.53;;;1.07;;
11086;SDS011;5597;47.588;9.642;2024-02-21T04:40:34;1.33;;;1.10;;
11086;SDS011;5597;47.588;9.642;2024-02-21T04:43:00;1.90;;;0.87;;
11086;SDS011;5597;47.588;9.642;2024-02-21T04:45:25;1.10;;;0.80;;
11086;SDS011;5597;47.588;9.642;2024-02-21T04:47:51;0.80;;;0.73;;
11086;SDS011;5597;47.588;9.642;2024-02-21T04:50:16;1.37;;;1.00;;
11086;SDS011;5597;47.588;9.642;2024-02-21T04:52:42;1.37;;;1.00;;
11086;SDS011;5597;47.588;9.642;2024-02-21T04:55:08;1.07;;;0.80;;
11086;SDS011;5597;47.588;9.642;2024-02-21T04:57:34;1.00;;;0.80;;
11086;SDS011;5597;47.588;9.642;2024-02-21T04:59:59;0.93;;;0.80;;
11086;SDS011;5597;47.588;9.642;2024-02-21T05:02:25;1.33;;;0.90;;
11086;SDS011;5597;47.588;9.642;2024-02-21T05:04:52;0.93;;;0.90;;
11086;SDS011;5597;47.588;9.642;2024-02-21T05:07:18;1.10;;;0.80;;
11086;SDS011;5597;47.588;9.642;2024-02-21T05:09:44;1.20;;;0.87;;
11086;SDS011;5597;47.588;9.642;2024-02-21T05:12:10;1.03;;;0.77;;
11086;SDS011;5597;47.588;9.642;2024-02-21T05:14:36;1.03;;;0.90;;
11086;SDS011;5597;47.588;9.642;2024-02-21T05:17:02;0.93;;;0.80;;
11086;SDS011;5597;47.588;9.642;2024-02-21T05:19:28;0.70;;;0.70;;
11086;SDS011;5597;47.588;9.642;2024-02-21T05:21:54;0.87;;;0.80;;
11086;SDS011;5597;47.588;9.642;2024-02-21T05:24:19;1.03;;;0.87;;
11086;SDS011;5597;47.588;9.642;2024-02-21T05:26:45;1.97;;;0.87;;
11086;SDS011;5597;47.588;9.642;2024-02-21T05:29:11;1.40;;;0.60;;
11086;SDS011;5597;47.588;9.642;2024-02-21T05:31:54;1.83;;;0.90;;
11086;SDS011;5597;47.588;9.642;2024-02-21T05:34:22;1.00;;;0.77;;
11086;SDS011;5597;47.588;9.642;2024-02-21T05:36:47;1.40;;;0.70;;
11086;SDS011;5597;47.588;9.642;2024-02-21T05:39:14;1.07;;;0.77;;
11086;SDS011;5597;47.588;9.642;2024-02-21T05:41:41;1.43;;;0.80;;
11086;SDS011;5597;47.588;9.642;2024-02-21T05:44:07;1.47;;;0.80;;
11086;SDS011;5597;47.588;9.642;2024-02-21T05:46:32;2.07;;;1.60;;
11086;SDS011;5597;47.588;9.642;2024-02-21T05:48:58;1.00;;;0.87;;
11086;SDS011;5597;47.588;9.642;2024-02-21T05:51:23;1.27;;;0.93;;
11086;SDS011;5597;47.588;9.642;2024-02-21T05:53:49;0.80;;;0.80;;
11086;SDS011;5597;47.588;9.642;2024-02-21T05:56:14;0.70;;;0.60;;
11086;SDS011;5597;47.588;9.642;2024-02-21T05:58:40;1.00;;;0.90;;
11086;SDS011;5597;47.588;9.642;2024-02-21T06:01:06;1.00;;;0.80;;
11086;SDS011;5597;47.588;9.642;2024-02-21T06:03:32;1.03;;;0.83;;
11086;SDS011;5597;47.588;9.642;2024-02-21T06:05:59;0.80;;;0.80;;
11086;SDS011;5597;47.588;9.642;2024-02-21T06:08:27;1.87;;;0.90;;
11086;SDS011;5597;47.588;9.642;2024-02-21T06:10:53;1.30;;;0.83;;
11086;SDS011;5597;47.588;9.642;2024-02-21T06:13:25;0.83;;;0.80;;
11086;SDS011;5597;47.588;9.642;2024-02-21T06:15:52;0.90;;;0.70;;
11086;SDS011;5597;47.588;9.642;2024-02-21T06:18:18;1.40;;;0.80;;
11086;SDS011;5597;47.588;9.642;2024-02-21T06:20:44;1.03;;;0.70;;
11086;SDS011;5597;47.588;9.642;2024-02-21T06:23:11;0.90;;;0.70;;
11086;SDS011;5597;47.588;9.642;2024-02-21T06:25:37;1.10;;;0.80;;
11086;SDS011;5597;47.588;9.642;2024-02-21T06:28:03;1.27;;;0.70;;
11086;SDS011;5597;47.588;9.642;2024-02-21T06:30:29;1.27;;;0.70;;
11086;SDS011;5597;47.588;9.642;2024-02-21T06:32:54;1.20;;;1.00;;
11086;SDS011;5597;47.588;9.642;2024-02-21T06:35:21;1.33;;;0.87;;
11086;SDS011;5597;47.588;9.642;2024-02-21T06:37:49;1.77;;;0.80;;
11086;SDS011;5597;47.588;9.642;2024-02-21T06:40:16;1.00;;;0.80;;
11086;SDS011;5597;47.588;9.642;2024-02-21T06:42:42;1.10;;;1.00;;
11086;SDS011;5597;47.588;9.642;2024-02-21T06:45:08;1.60;;;0.90;;
11086;SDS011;5597;47.588;9.642;2024-02-21T06:47:33;1.13;;;1.03;;
11086;SDS011;5597;47.588;9.642;2024-02-21T06:49:59;2.30;;;1.20;;
11086;SDS011;5597;47.588;9.642;2024-02-21T06:52:25;1.87;;;1.20;;
11086;SDS011;5597;47.588;9.642;2024-02-21T06:54:50;1.50;;;1.40;;
11086;SDS011;5597;47.588;9.642;2024-02-21T06:57:16;2.50;;;1.27;;
11086;SDS011;5597;47.588;9.642;2024-02-21T06:59:41;1.40;;;1.20;;
11086;SDS011;5597;47.588;9.642;2024-02-21T07:02:08;1.60;;;1.20;;
11086;SDS011;5597;47.588;9.642;2024-02-21T07:04:34;2.30;;;1.37;;
11086;SDS011;5597;47.588;9.642;2024-02-21T07:06:59;1.27;;;1.10;;
11086;SDS011;5597;47.588;9.642;2024-02-21T07:09:25;1.93;;;1.07;;
11086;SDS011;5597;47.588;9.642;2024-02-21T07:11:51;1.47;;;0.97;;
11086;SDS011;5597;47.588;9.642;2024-02-21T07:14:17;2.10;;;1.20;;
11086;SDS011;5597;47.588;9.642;2024-02-21T07:16:43;1.37;;;1.03;;
11086;SDS011;5597;47.588;9.642;2024-02-21T07:19:09;1.30;;;1.20;;
11086;SDS011;5597;47.588;9.642;2024-02-21T07:21:34;1.10;;;1.00;;
11086;SDS011;5597;47.588;9.642;2024-02-21T07:24:03;1.23;;;1.13;;
11086;SDS011;5597;47.588;9.642;2024-02-21T07:26:29;2.07;;;1.40;;
11086;SDS011;5597;47.588;9.642;2024-02-21T07:28:56;1.40;;;1.20;;
11086;SDS011;5597;47.588;9.642;2024-02-21T07:31:21;1.43;;;1.23;;
11086;SDS011;5597;47.588;9.642;2024-02-21T07:33:47;1.27;;;1.17;;
11086;SDS011;5597;47.588;9.642;2024-02-21T07:36:14;1.30;;;1.20;;
11086;SDS011;5597;47.588;9.642;2024-02-21T07:38:40;1.30;;;1.10;;
11086;SDS011;5597;47.588;9.642;2024-02-21T07:41:06;1.40;;;1.00;;
11086;SDS011;5597;47.588;9.642;2024-02-21T07:43:32;1.13;;;1.00;;
11086;SDS011;5597;47.588;9.642;2024-02-21T07:45:57;1.90;;;0.83;;
11086;SDS011;5597;47.588;9.642;2024-02-21T07:48:23;1.07;;;0.97;;
11086;SDS011;5597;47.588;9.642;2024-02-21T07:50:50;0.97;;;0.90;;
11086;SDS011;5597;47.588;9.642;2024-02-21T07:53:16;0.80;;;0.77;;
11086;SDS011;5597;47.588;9.642;2024-02-21T07:55:41;1.07;;;0.97;;
11086;SDS011;5597;47.588;9.642;2024-02-21T07:58:07;1.43;;;1.00;;
11086;SDS011;5597;47.588;9.642;2024-02-21T08:00:33;1.23;;;0.90;;
11086;SDS011;5597;47.588;9.642;2024-02-21T08:02:58;1.20;;;1.00;;
11086;SDS011;5597;47.588;9.642;2024-02-21T08:05:24;2.50;;;0.97;;
11086;SDS011;5597;47.588;9.642;2024-02-21T08:07:49;1.40;;;1.00;;
11086;SDS011;5597;47.588;9.642;2024-02-21T08:10:15;1.97;;;1.23;;
11086;SDS011;5597;47.588;9.642;2024-02-21T08:12:40;1.37;;;0.97;;
11086;SDS011;5597;47.588;9.642;2024-02-21T08:15:06;1.30;;;0.90;;
11086;SDS011;5597;47.588;9.642;2024-02-21T08:17:35;0.87;;;0.87;;
11086;SDS011;5597;47.588;9.642;2024-02-21T08:20:01;1.47;;;0.80;;
11086;SDS011;5597;47.588;9.642;2024-02-21T08:22:27;1.50;;;1.00;;
11086;SDS011;5597;47.588;9.642;2024-02-21T08:24:53;1.87;;;0.90;;
11086;SDS011;5597;47.588;9.642;2024-02-21T08:27:19;1.67;;;1.10;;
11086;SDS011;5597;47.588;9.642;2024-02-21T08:29:44;1.73;;;1.00;;
11086;SDS011;5597;47.588;9.642;2024-02-21T08:32:10;1.40;;;1.00;;
11086;SDS011;5597;47.588;9.642;2024-02-21T08:34:35;1.03;;;0.80;;
11086;SDS011;5597;47.588;9.642;2024-02-21T08:37:01;1.83;;;1.27;;
11086;SDS011;5597;47.588;9.642;2024-02-21T08:39:26;1.40;;;1.20;;
11086;SDS011;5597;47.588;9.642;2024-02-21T08:41:53;1.87;;;1.20;;
11086;SDS011;5597;47.588;9.642;2024-02-21T08:44:19;1.10;;;0.93;;
11086;SDS011;5597;47.588;9.642;2024-02-21T08:46:45;1.03;;;0.93;;
11086;SDS011;5597;47.588;9.642;2024-02-21T08:49:12;3.77;;;0.90;;
11086;SDS011;5597;47.588;9.642;2024-02-21T08:51:38;2.27;;;1.13;;
11086;SDS011;5597;47.588;9.642;2024-02-21T08:54:04;1.50;;;1.10;;
11086;SDS011;5597;47.588;9.642;2024-02-21T08:56:30;1.37;;;0.97;;
11086;SDS011;5597;47.588;9.642;2024-02-21T08:58:56;1.37;;;0.97;;
11086;SDS011;5597;47.588;9.642;2024-02-21T09:01:23;1.30;;;1.00;;
11086;SDS011;5597;47.588;9.642;2024-02-21T09:03:48;2.03;;;1.10;;
11086;SDS011;5597;47.588;9.642;2024-02-21T09:06:18;1.43;;;1.13;;
11086;SDS011;5597;47.588;9.642;2024-02-21T09:08:45;1.50;;;1.00;;
11086;SDS011;5597;47.588;9.642;2024-02-21T09:11:11;1.47;;;1.00;;
11086;SDS011;5597;47.588;9.642;2024-02-21T09:13:36;2.20;;;1.20;;
11086;SDS011;5597;47.588;9.642;2024-02-21T09:16:02;3.00;;;1.00;;
11086;SDS011;5597;47.588;9.642;2024-02-21T09:18:28;1.20;;;1.10;;
11086;SDS011;5597;47.588;9.642;2024-02-21T09:20:54;1.37;;;1.00;;
11086;SDS011;5597;47.588;9.642;2024-02-21T09:23:20;1.63;;;1.20;;
11086;SDS011;5597;47.588;9.642;2024-02-21T09:25:48;1.37;;;1.00;;
11086;SDS011;5597;47.588;9.642;2024-02-21T09:28:14;1.10;;;1.00;;
11086;SDS011;5597;47.588;9.642;2024-02-21T09:30:39;1.10;;;1.00;;
11086;SDS011;5597;47.588;9.642;2024-02-21T09:33:05;1.67;;;1.03;;
11086;SDS011;5597;47.588;9.642;2024-02-21T09:35:31;1.50;;;1.10;;
11086;SDS011;5597;47.588;9.642;2024-02-21T09:37:58;1.23;;;1.13;;
11086;SDS011;5597;47.588;9.642;2024-02-21T09:40:24;1.67;;;1.20;;
11086;SDS011;5597;47.588;9.642;2024-02-21T09:42:50;1.67;;;1.10;;
11086;SDS011;5597;47.588;9.642;2024-02-21T09:45:27;1.50;;;1.27;;
11086;SDS011;5597;47.588;9.642;2024-02-21T09:50:47;2.87;;;1.30;;
11086;SDS011;5597;47.588;9.642;2024-02-21T09:53:15;1.83;;;1.47;;
11086;SDS011;5597;47.588;9.642;2024-02-21T09:55:41;1.77;;;1.43;;
11086;SDS011;5597;47.588;9.642;2024-02-21T09:58:08;3.43;;;1.77;;
11086;SDS011;5597;47.588;9.642;2024-02-21T10:00:35;2.03;;;1.60;;
11086;SDS011;5597;47.588;9.642;2024-02-21T10:03:01;2.47;;;1.80;;
11086;SDS011;5597;47.588;9.642;2024-02-21T10:05:32;1.97;;;1.60;;
11086;SDS011;5597;47.588;9.642;2024-02-21T10:07:59;1.60;;;1.50;;
11086;SDS011;5597;47.588;9.642;2024-02-21T10:10:24;2.63;;;1.43;;
11086;SDS011;5597;47.588;9.642;2024-02-21T10:12:52;1.40;;;1.20;;
11086;SDS011;5597;47.588;9.642;2024-02-21T10:15:21;1.87;;;1.57;;
11086;SDS011;5597;47.588;9.642;2024-02-21T10:17:47;2.43;;;1.60;;
11086;SDS011;5597;47.588;9.642;2024-02-21T10:20:13;2.73;;;1.70;;
11086;SDS011;5597;47.588;9.642;2024-02-21T10:22:40;1.90;;;1.70;;
11086;SDS011;5597;47.588;9.642;2024-02-21T10:25:09;3.00;;;1.67;;
11086;SDS011;5597;47.588;9.642;2024-02-21T10:27:35;1.67;;;1.57;;
11086;SDS011;5597;47.588;9.642;2024-02-21T10:30:01;1.50;;;1.40;;
11086;SDS011;5597;47.588;9.642;2024-02-21T10:32:27;2.23;;;1.60;;
11086;SDS011;5597;47.588;9.642;2024-02-21T10:35:03;2.57;;;1.70;;
11086;SDS011;5597;47.588;9.642;2024-02-21T10:37:29;2.37;;;1.60;;
11086;SDS011;5597;47.588;9.642;2024-02-21T10:39:56;1.63;;;1.37;;
11086;SDS011;5597;47.588;9.642;2024-02-21T10:42:22;1.93;;;1.57;;
11086;SDS011;5597;47.588;9.642;2024-02-21T10:44:48;2.10;;;1.70;;
11086;SDS011;5597;47.588;9.642;2024-02-21T10:47:17;2.23;;;1.90;;
11086;SDS011;5597;47.588;9.642;2024-02-21T10:49:46;2.37;;;1.90;;
11086;SDS011;5597;47.588;9.642;2024-02-21T10:52:31;2.33;;;1.70;;
11086;SDS011;5597;47.588;9.642;2024-02-21T10:55:26;1.70;;;1.60;;
11086;SDS011;5597;47.588;9.642;2024-02-21T10:58:03;2.23;;;1.60;;
11086;SDS011;5597;47.588;9.642;2024-02-21T11:00:29;1.93;;;1.47;;
11086;SDS011;5597;47.588;9.642;2024-02-21T11:02:56;1.80;;;1.60;;
11086;SDS011;5597;47.588;9.642;2024-02-21T11:05:23;1.93;;;1.57;;
11086;SDS011;5597;47.588;9.642;2024-02-21T11:07:50;4.93;;;3.60;;
11086;SDS011;5597;47.588;9.642;2024-02-21T11:10:23;5.00;;;3.37;;
11086;SDS011;5597;47.588;9.642;2024-02-21T11:12:52;3.33;;;2.70;;
11086;SDS011;5597;47.588;9.642;2024-02-21T11:15:39;2.47;;;2.00;;
11086;SDS011;5597;47.588;9.642;2024-02-21T11:18:04;1.90;;;1.50;;
11086;SDS011;5597;47.588;9.642;2024-02-21T11:20:36;1.60;;;1.50;;
11086;SDS011;5597;47.588;9.642;2024-02-21T11:23:03;1.77;;;1.40;;
11086;SDS011;5597;47.588;9.642;2024-02-21T11:25:29;2.60;;;1.50;;
11086;SDS011;5597;47.588;9.642;2024-02-21T11:27:59;2.33;;;1.40;;
11086;SDS011;5597;47.588;9.642;2024-02-21T11:30:32;1.80;;;1.30;;
11086;SDS011;5597;47.588;9.642;2024-02-21T11:33:05;3.97;;;1.43;;
11086;SDS011;5597;47.588;9.642;2024-02-21T11:35:32;3.70;;;1.70;;
11086;SDS011;5597;47.588;9.642;2024-02-21T11:38:11;1.77;;;1.10;;
11086;SDS011;5597;47.588;9.642;2024-02-21T11:40:44;2.33;;;1.30;;
11086;SDS011;5597;47.588;9.642;2024-02-21T11:43:11;2.33;;;1.40;;
11086;SDS011;5597;47.588;9.642;2024-02-21T11:45:36;1.43;;;1.10;;
11086;SDS011;5597;47.588;9.642;2024-02-21T11:48:05;1.20;;;1.10;;
11086;SDS011;5597;47.588;9.642;2024-02-21T11:50:31;1.20;;;1.00;;
11086;SDS011;5597;47.588;9.642;2024-02-21T11:52:57;1.93;;;1.30;;
11086;SDS011;5597;47.588;9.642;2024-02-21T11:55:23;1.80;;;0.97;;
11086;SDS011;5597;47.588;9.642;2024-02-21T11:57:49;2.50;;;1.27;;
11086;SDS011;5597;47.588;9.642;2024-02-21T12:00:16;1.70;;;1.20;;
11086;SDS011;5597;47.588;9.642;2024-02-21T12:02:43;2.17;;;1.27;;
11086;SDS011;5597;47.588;9.642;2024-02-21T12:05:10;2.13;;;1.77;;
11086;SDS011;5597;47.588;9.642;2024-02-21T12:07:36;3.37;;;2.30;;
11086;SDS011;5597;47.588;9.642;2024-02-21T12:10:07;2.60;;;1.97;;
11086;SDS011;5597;47.588;9.642;2024-02-21T12:12:37;2.47;;;1.53;;
11086;SDS011;5597;47.588;9.642;2024-02-21T12:15:06;1.93;;;1.70;;
11086;SDS011;5597;47.588;9.642;2024-02-21T12:17:35;2.83;;;2.03;;
11086;SDS011;5597;47.588;9.642;2024-02-21T12:20:02;1.83;;;1.73;;
11086;SDS011;5597;47.588;9.642;2024-02-21T12:22:30;3.57;;;1.80;;
11086;SDS011;5597;47.588;9.642;2024-02-21T12:24:57;1.73;;;1.40;;
11086;SDS011;5597;47.588;9.642;2024-02-21T12:27:23;1.73;;;1.50;;
11086;SDS011;5597;47.588;9.642;2024-02-21T12:29:50;3.57;;;1.50;;
11086;SDS011;5597;47.588;9.642;2024-02-21T12:32:16;2.67;;;1.70;;
11086;SDS011;5597;47.588;9.642;2024-02-21T12:34:41;2.27;;;1.60;;
11086;SDS011;5597;47.588;9.642;2024-02-21T12:37:07;2.73;;;1.50;;
11086;SDS011;5597;47.588;9.642;2024-02-21T12:39:32;2.73;;;1.50;;
11086;SDS011;5597;47.588;9.642;2024-02-21T12:41:58;1.93;;;1.30;;
11086;SDS011;5597;47.588;9.642;2024-02-21T12:44:24;2.30;;;1.50;;
11086;SDS011;5597;47.588;9.642;2024-02-21T12:46:49;2.00;;;1.40;;
11086;SDS011;5597;47.588;9.642;2024-02-21T12:49:18;3.13;;;1.60;;
11086;SDS011;5597;47.588;9.642;2024-02-21T12:51:44;2.40;;;1.57;;
11086;SDS011;5597;47.588;9.642;2024-02-21T12:54:11;1.77;;;1.30;;
11086;SDS011;5597;47.588;9.642;2024-02-21T12:56:37;1.53;;;1.30;;
11086;SDS011;5597;47.588;9.642;2024-02-21T12:59:03;3.37;;;1.70;;
11086;SDS011;5597;47.588;9.642;2024-02-21T13:01:28;2.40;;;1.57;;
11086;SDS011;5597;47.588;9.642;2024-02-21T13:03:54;1.70;;;1.40;;
11086;SDS011;5597;47.588;9.642;2024-02-21T13:06:22;2.00;;;1.70;;
11086;SDS011;5597;47.588;9.642;2024-02-21T13:08:47;2.07;;;1.50;;
11086;SDS011;5597;47.588;9.642;2024-02-21T13:11:13;2.70;;;1.53;;
11086;SDS011;5597;47.588;9.642;2024-02-21T13:13:39;1.70;;;1.27;;
11086;SDS011;5597;47.588;9.642;2024-02-21T13:16:04;1.50;;;1.40;;
11086;SDS011;5597;47.588;9.642;2024-02-21T13:18:30;3.23;;;2.20;;
11086;SDS011;5597;47.588;9.642;2024-02-21T13:20:57;2.90;;;1.80;;
11086;SDS011;5597;47.588;9.642;2024-02-21T13:23:23;2.00;;;1.53;;
11086;SDS011;5597;47.588;9.642;2024-02-21T13:25:48;2.03;;;1.27;;
11086;SDS011;5597;47.588;9.642;2024-02-21T13:28:15;1.80;;;1.20;;
11086;SDS011;5597;47.588;9.642;2024-02-21T13:30:41;2.03;;;1.30;;
11086;SDS011;5597;47.588;9.642;2024-02-21T13:33:07;1.20;;;1.10;;
11086;SDS011;5597;47.588;9.642;2024-02-21T13:35:34;1.67;;;1.27;;
11086;SDS011;5597;47.588;9.642;2024-02-21T13:38:01;3.23;;;1.40;;
11086;SDS011;5597;47.588;9.642;2024-02-21T13:40:27;2.27;;;1.40;;
11086;SDS011;5597;47.588;9.642;2024-02-21T13:42:53;1.57;;;1.13;;
11086;SDS011;5597;47.588;9.642;2024-02-21T13:45:19;1.63;;;1.07;;
11086;SDS011;5597;47.588;9.642;2024-02-21T13:47:45;1.73;;;1.20;;
11086;SDS011;5597;47.588;9.642;2024-02-21T13:50:10;1.77;;;1.10;;
11086;SDS011;5597;47.588;9.642;2024-02-21T13:52:39;2.33;;;1.30;;
11086;SDS011;5597;47.588;9.642;2024-02-21T13:55:05;1.30;;;1.20;;
11086;SDS011;5597;47.588;9.642;2024-02-21T13:57:33;2.30;;;1.40;;
11086;SDS011;5597;47.588;9.642;2024-02-21T14:00:03;2.17;;;1.37;;
11086;SDS011;5597;47.588;9.642;2024-02-21T14:02:29;2.47;;;1.30;;
11086;SDS011;5597;47.588;9.642;2024-02-21T14:04:55;1.23;;;1.13;;
11086;SDS011;5597;47.588;9.642;2024-02-21T14:07:21;1.73;;;1.40;;
11086;SDS011;5597;47.588;9.642;2024-02-21T14:09:47;1.53;;;1.20;;
11086;SDS011;5597;47.588;9.642;2024-02-21T14:12:12;1.83;;;1.00;;
11086;SDS011;5597;47.588;9.642;2024-02-21T14:14:38;1.63;;;1.10;;
11086;SDS011;5597;47.588;9.642;2024-02-21T14:17:04;1.60;;;1.10;;
11086;SDS011;5597;47.588;9.642;2024-02-21T14:19:30;1.17;;;1.07;;
11086;SDS011;5597;47.588;9.642;2024-02-21T14:21:55;2.23;;;1.27;;
11086;SDS011;5597;47.588;9.642;2024-02-21T14:24:21;1.87;;;1.20;;
11086;SDS011;5597;47.588;9.642;2024-02-21T14:26:48;3.13;;;1.27;;
11086;SDS011;5597;47.588;9.642;2024-02-21T14:29:13;1.13;;;1.00;;
11086;SDS011;5597;47.588;9.642;2024-02-21T14:31:39;1.57;;;1.00;;
11086;SDS011;5597;47.588;9.642;2024-02-21T14:34:05;3.83;;;1.33;;
11086;SDS011;5597;47.588;9.642;2024-02-21T14:36:32;1.57;;;1.10;;
11086;SDS011;5597;47.588;9.642;2024-02-21T14:38:58;1.87;;;1.20;;
11086;SDS011;5597;47.588;9.642;2024-02-21T14:41:24;1.70;;;1.10;;
11086;SDS011;5597;47.588;9.642;2024-02-21T14:43:50;1.73;;;1.20;;
11086;SDS011;5597;47.588;9.642;2024-02-21T14:46:16;2.43;;;1.30;;
11086;SDS011;5597;47.588;9.642;2024-02-21T14:48:42;1.17;;;1.07;;
11086;SDS011;5597;47.588;9.642;2024-02-21T14:51:07;3.00;;;1.20;;
11086;SDS011;5597;47.588;9.642;2024-02-21T14:53:33;2.30;;;1.23;;
11086;SDS011;5597;47.588;9.642;2024-02-21T14:55:59;1.37;;;1.23;;
11086;SDS011;5597;47.588;9.642;2024-02-21T14:58:24;2.30;;;1.23;;